Forestport Station, New York
Current Conditions -  °F | °C
As of 10:53 PM on Tuesday 27 Jan 2015 (Local Time) from KRME Reporting Station
Clear Clear  
Wind Chill: -3°   Ceiling: Unl
Heat Index: 10°   Visibility: 10mi
Dew Point: -5°   Wind: 9mph
Humidity: 51%   Direction: 270°W
Pressure: 30"   Gusts: NA
Location:  43.501°N, 75.1602°W
Report Text: KRME 280353Z AUTO 27008KT 10SM CLR M12/M21 A3000 RMK AO2 SLP166 T11221206
Loading
Personal Weather Stations






























Interactive Weather Map New forecast layout! Learn more

10-Day Weather Forecast

Advertisements
Track Severe Weather on mobile